Time;durP1;ratioP1;P1;durP2;ratioP2;P2;SDS_P1;SDS_P2;PMS_P1;PMS_P2;Temp;Humidity;BMP_temperature;BMP_pressure;BME280_temperature;BME280_humidity;BME280_pressure;Samples;Min_cycle;Max_cycle;Signal;HPM_P1;HPM_P2
2022/10/02 00:02:23;;;;;;;2.97;0.95;;;21.70;62.00;;;;;;5022305;28;43428;-58
2022/10/02 00:05:17;;;;;;;0.93;0.82;;;21.70;62.10;;;;;;5020129;28;43514;-58
2022/10/02 00:07:45;;;;;;;1.00;0.73;;;21.60;62.00;;;;;;5020594;28;43472;-58
2022/10/02 00:10:19;;;;;;;1.85;1.00;;;21.60;62.10;;;;;;5022021;28;45019;-57
2022/10/02 00:12:51;;;;;;;0.52;0.52;;;21.60;62.00;;;;;;5020935;28;43468;-58
2022/10/02 00:15:28;;;;;;;2.67;0.90;;;21.60;62.10;;;;;;5020983;28;43411;-58
2022/10/02 00:18:06;;;;;;;0.75;0.70;;;21.60;62.10;;;;;;5022091;28;43380;-58
2022/10/02 00:20:58;;;;;;;1.88;1.00;;;21.60;62.20;;;;;;5014986;28;44676;-57
2022/10/02 00:23:31;;;;;;;1.38;0.80;;;21.50;62.20;;;;;;5020092;28;43538;-58
2022/10/02 00:26:21;;;;;;;1.55;0.70;;;21.50;62.20;;;;;;5021431;28;43427;-58
2022/10/02 00:29:23;;;;;;;1.73;0.90;;;21.50;62.20;;;;;;5020365;28;44299;-58
2022/10/02 00:32:04;;;;;;;1.10;0.73;;;21.50;62.20;;;;;;5025161;28;43804;-58
2022/10/02 00:34:46;;;;;;;0.80;0.68;;;21.50;62.20;;;;;;5024360;28;43455;-58
2022/10/02 00:37:19;;;;;;;0.77;0.50;;;21.40;62.20;;;;;;5021382;28;43530;-58
2022/10/02 00:40:08;;;;;;;0.80;0.70;;;21.50;62.30;;;;;;5025144;28;43453;-57
2022/10/02 00:43:06;;;;;;;1.42;0.80;;;21.40;62.20;;;;;;5024238;28;43873;-58
2022/10/02 00:45:52;;;;;;;1.27;0.73;;;21.40;62.20;;;;;;5023377;28;43675;-58
2022/10/02 00:48:47;;;;;;;0.82;0.70;;;21.40;62.30;;;;;;5024756;28;43426;-58
2022/10/02 00:51:21;;;;;;;2.35;0.65;;;21.40;62.20;;;;;;5024699;28;44049;-58
2022/10/02 00:54:09;;;;;;;1.70;0.88;;;21.40;62.20;;;;;;5017676;28;44930;-58
2022/10/02 00:56:48;;;;;;;0.90;0.57;;;21.40;62.20;;;;;;5022303;28;43452;-57
2022/10/02 00:59:24;;;;;;;1.17;0.75;;;21.40;62.20;;;;;;5024689;28;43400;-58
2022/10/02 01:02:25;;;;;;;1.95;1.17;;;21.30;62.20;;;;;;5022712;28;43458;-58
2022/10/02 01:04:53;;;;;;;1.07;0.70;;;21.30;62.20;;;;;;5022231;28;43611;-58
2022/10/02 01:07:20;;;;;;;0.93;0.60;;;21.30;62.20;;;;;;5024321;28;43419;-58
2022/10/02 01:09:48;;;;;;;1.42;0.82;;;21.30;62.20;;;;;;5023908;28;43624;-58
2022/10/02 01:12:16;;;;;;;2.17;0.90;;;21.30;62.20;;;;;;5024339;28;43440;-58
2022/10/02 01:14:43;;;;;;;1.02;0.50;;;21.30;62.20;;;;;;5022440;28;44021;-58
2022/10/02 01:17:30;;;;;;;1.30;0.80;;;21.30;62.20;;;;;;5024098;28;43312;-58
2022/10/02 01:20:06;;;;;;;2.53;1.20;;;21.30;62.20;;;;;;5024686;28;43409;-58
2022/10/02 01:23:00;;;;;;;1.08;0.70;;;21.30;62.30;;;;;;5055813;28;43963;-58
2022/10/02 01:25:28;;;;;;;0.65;0.63;;;21.30;62.30;;;;;;5023918;28;43904;-58
2022/10/02 01:27:56;;;;;;;2.17;1.10;;;21.20;62.20;;;;;;5024382;28;43478;-58
2022/10/02 01:30:24;;;;;;;1.33;1.00;;;21.20;62.20;;;;;;5023459;28;43438;-58
2022/10/02 01:32:55;;;;;;;1.27;0.70;;;21.20;62.30;;;;;;5024320;28;43537;-58
2022/10/02 01:35:26;;;;;;;1.52;1.08;;;21.20;62.20;;;;;;5023701;28;44697;-58
2022/10/02 01:37:54;;;;;;;0.82;0.82;;;21.20;62.30;;;;;;5022096;28;43981;-58
2022/10/02 01:40:32;;;;;;;1.52;0.90;;;21.20;62.30;;;;;;5023387;28;43413;-58
2022/10/02 01:43:07;;;;;;;1.77;1.20;;;21.20;62.30;;;;;;5024193;28;43375;-58
2022/10/02 01:45:52;;;;;;;1.27;0.90;;;21.20;62.30;;;;;;5021044;28;44007;-58
2022/10/02 01:48:53;;;;;;;1.23;0.60;;;21.20;62.20;;;;;;5023762;28;43357;-58
2022/10/02 01:51:42;;;;;;;1.30;0.88;;;21.20;62.20;;;;;;5023069;28;43513;-58
2022/10/02 01:54:40;;;;;;;1.67;1.02;;;21.20;62.30;;;;;;5022702;28;43460;-58
2022/10/02 01:57:39;;;;;;;1.50;0.80;;;21.20;62.30;;;;;;5020015;28;44674;-58
2022/10/02 02:00:11;;;;;;;2.28;1.15;;;21.10;62.20;;;;;;5023847;28;43898;-58
2022/10/02 02:02:54;;;;;;;2.50;0.90;;;21.10;62.20;;;;;;5023568;28;43424;-58
2022/10/02 02:05:42;;;;;;;3.13;1.00;;;21.10;62.20;;;;;;5022278;28;43439;-58
2022/10/02 02:08:34;;;;;;;2.35;1.10;;;21.10;62.20;;;;;;5037966;28;43927;-58
2022/10/02 02:11:19;;;;;;;0.70;0.60;;;21.10;62.20;;;;;;5019612;28;44767;-58
2022/10/02 02:14:02;;;;;;;2.90;0.90;;;21.10;62.20;;;;;;5021092;28;43344;-58
2022/10/02 02:16:48;;;;;;;1.88;0.85;;;21.10;62.20;;;;;;5021905;28;43758;-59
2022/10/02 02:19:18;;;;;;;1.13;0.90;;;21.10;62.20;;;;;;5022169;28;44046;-58
2022/10/02 02:21:51;;;;;;;1.42;0.80;;;21.00;62.20;;;;;;5023210;28;43415;-58
2022/10/02 02:24:25;;;;;;;1.77;0.93;;;21.00;62.30;;;;;;5023417;28;43376;-58
2022/10/02 02:26:57;;;;;;;1.15;0.80;;;21.00;62.30;;;;;;5021194;28;43530;-58
2022/10/02 02:29:27;;;;;;;3.58;1.25;;;21.00;62.30;;;;;;5016512;28;44670;-58
2022/10/02 02:31:58;;;;;;;1.45;1.00;;;21.00;62.30;;;;;;5023261;28;43407;-58
2022/10/02 02:34:38;;;;;;;2.58;1.10;;;21.00;62.40;;;;;;5022491;28;43439;-58
2022/10/02 02:37:12;;;;;;;1.02;0.70;;;21.00;62.30;;;;;;5021187;28;43502;-58
2022/10/02 02:39:46;;;;;;;1.05;0.80;;;21.00;62.40;;;;;;5020690;28;44331;-58
2022/10/02 02:42:17;;;;;;;2.25;1.08;;;21.00;62.30;;;;;;5023127;28;43471;-58
2022/10/02 02:45:10;;;;;;;2.25;1.05;;;21.00;62.40;;;;;;5019831;28;43535;-58
2022/10/02 02:47:45;;;;;;;1.77;1.13;;;20.90;62.30;;;;;;5012005;28;43419;-58
2022/10/02 02:50:25;;;;;;;1.80;1.00;;;20.90;62.30;;;;;;5021685;28;43938;-58
2022/10/02 02:53:16;;;;;;;1.38;0.88;;;20.90;62.30;;;;;;5017482;28;43538;-57
2022/10/02 02:55:59;;;;;;;1.80;0.90;;;20.90;62.40;;;;;;5020382;28;43383;-57
2022/10/02 02:58:36;;;;;;;2.08;0.93;;;20.90;62.40;;;;;;5019903;28;43397;-58
2022/10/02 03:01:03;;;;;;;0.73;0.70;;;20.90;62.50;;;;;;5054757;28;44042;-57
2022/10/02 03:03:31;;;;;;;2.28;1.20;;;20.90;62.40;;;;;;5021784;28;43408;-58
2022/10/02 03:06:20;;;;;;;1.88;1.10;;;20.90;62.40;;;;;;5022615;28;43427;-58
2022/10/02 03:08:50;;;;;;;1.58;1.00;;;20.90;62.40;;;;;;5021838;28;43486;-57
2022/10/02 03:11:35;;;;;;;1.55;0.95;;;20.90;62.40;;;;;;5022469;28;44708;-58
2022/10/02 03:14:39;;;;;;;1.90;1.02;;;20.90;62.50;;;;;;5022765;28;43977;-57
2022/10/02 03:17:16;;;;;;;1.08;0.88;;;20.90;62.50;;;;;;5022201;28;43802;-57
2022/10/02 03:19:56;;;;;;;2.25;1.02;;;20.90;62.50;;;;;;5022091;28;43420;-57
2022/10/02 03:22:35;;;;;;;1.48;0.90;;;20.80;62.50;;;;;;5019769;28;44971;-57
2022/10/02 03:25:16;;;;;;;1.40;0.90;;;20.90;62.60;;;;;;5015484;28;44099;-57
2022/10/02 03:27:57;;;;;;;2.10;0.93;;;20.80;62.60;;;;;;5022708;28;43425;-57
2022/10/02 03:30:26;;;;;;;1.73;0.80;;;20.80;62.50;;;;;;5021901;28;43444;-57
2022/10/02 03:32:59;;;;;;;2.15;1.20;;;20.80;62.60;;;;;;5022549;28;44039;-58
2022/10/02 03:35:28;;;;;;;2.22;1.00;;;20.80;62.50;;;;;;5021583;28;43526;-57
2022/10/02 03:38:00;;;;;;;2.17;1.05;;;20.80;62.50;;;;;;5018876;28;43336;-57
2022/10/02 03:40:28;;;;;;;1.20;0.93;;;20.80;63.20;;;;;;5010802;28;43495;-58
2022/10/02 03:42:59;;;;;;;1.98;1.00;;;20.80;62.60;;;;;;5022385;28;44760;-57
2022/10/02 03:45:27;;;;;;;1.48;1.00;;;20.80;62.70;;;;;;5020953;28;43555;-57
2022/10/02 03:48:16;;;;;;;2.08;1.27;;;20.80;62.60;;;;;;5022048;28;43415;-58
2022/10/02 03:50:44;;;;;;;1.67;1.08;;;20.80;62.60;;;;;;5019843;28;43422;-57
2022/10/02 03:53:17;;;;;;;1.30;0.85;;;20.80;62.60;;;;;;5021676;28;44674;-57
2022/10/02 03:55:54;;;;;;;1.88;0.90;;;20.80;62.70;;;;;;5018500;28;43566;-57
2022/10/02 03:58:23;;;;;;;1.20;0.88;;;20.70;62.60;;;;;;5021546;28;43427;-57
2022/10/02 04:01:16;;;;;;;1.75;0.90;;;20.70;62.60;;;;;;5022164;28;43596;-57
2022/10/02 04:04:00;;;;;;;1.33;0.88;;;20.70;62.60;;;;;;5020934;28;44674;-57
2022/10/02 04:06:36;;;;;;;1.67;0.85;;;20.70;62.60;;;;;;5027661;28;43537;-58
2022/10/02 04:09:10;;;;;;;2.38;1.20;;;20.70;62.70;;;;;;5028980;28;43489;-57
2022/10/02 04:11:47;;;;;;;1.75;1.00;;;20.70;62.70;;;;;;5027562;28;43424;-57
2022/10/02 04:14:19;;;;;;;1.35;0.98;;;20.70;62.70;;;;;;5027983;28;43730;-58
2022/10/02 04:17:01;;;;;;;1.92;1.10;;;20.70;62.70;;;;;;5028048;28;43511;-57
2022/10/02 04:20:10;;;;;;;1.48;0.80;;;20.70;62.70;;;;;;5026206;28;43450;-57
2022/10/02 04:22:44;;;;;;;1.27;1.05;;;20.70;62.70;;;;;;5025230;28;43484;-57
2022/10/02 04:25:20;;;;;;;2.55;0.90;;;20.70;62.80;;;;;;5025237;28;44243;-57
2022/10/02 04:28:14;;;;;;;1.20;0.70;;;20.60;62.70;;;;;;5028255;28;43451;-57
2022/10/02 04:30:41;;;;;;;1.55;1.00;;;20.60;62.70;;;;;;5028318;28;43405;-57
2022/10/02 04:33:16;;;;;;;2.42;1.02;;;20.60;62.70;;;;;;5027851;28;43461;-58
2022/10/02 04:35:52;;;;;;;2.08;1.00;;;20.60;62.80;;;;;;5028061;28;44781;-57
2022/10/02 04:38:40;;;;;;;2.53;0.93;;;20.60;62.80;;;;;;5024372;28;43459;-58
2022/10/02 04:41:21;;;;;;;1.90;0.95;;;20.60;62.80;;;;;;5026763;28;43416;-57
2022/10/02 04:43:57;;;;;;;2.25;1.33;;;20.60;62.80;;;;;;5020219;28;43439;-57
2022/10/02 04:46:31;;;;;;;2.53;0.90;;;20.60;62.80;;;;;;5027040;28;44716;-58
2022/10/02 04:49:35;;;;;;;1.73;0.90;;;20.60;62.80;;;;;;5028093;28;43498;-57
2022/10/02 04:52:45;;;;;;;1.40;0.75;;;20.60;62.80;;;;;;5028152;28;43495;-57
2022/10/02 04:55:40;;;;;;;2.47;0.90;;;20.60;62.80;;;;;;5005883;28;43551;-58
2022/10/02 04:58:10;;;;;;;2.50;1.20;;;20.50;62.90;;;;;;5027884;28;44853;-58
2022/10/02 05:01:19;;;;;;;1.67;0.98;;;20.50;63.10;;;;;;5026776;28;43500;-58
2022/10/02 05:03:56;;;;;;;1.58;0.80;;;20.50;62.80;;;;;;5021155;28;43583;-58
2022/10/02 05:06:41;;;;;;;1.10;0.80;;;20.50;62.90;;;;;;5024397;28;43517;-58
2022/10/02 05:09:40;;;;;;;1.42;0.90;;;20.50;62.90;;;;;;5025778;28;44680;-58
2022/10/02 05:12:29;;;;;;;1.15;0.98;;;20.50;62.80;;;;;;5026341;28;43797;-57
2022/10/02 05:15:11;;;;;;;1.20;1.00;;;20.60;62.80;;;;;;5026694;28;43424;-58
2022/10/02 05:18:01;;;;;;;1.85;1.15;;;20.60;62.90;;;;;;5019097;28;43528;-58
2022/10/02 05:20:54;;;;;;;3.67;1.13;;;20.60;62.90;;;;;;5019853;28;43630;-57
2022/10/02 05:23:36;;;;;;;1.10;0.82;;;20.50;63.00;;;;;;5023231;28;44050;-58
2022/10/02 05:26:33;;;;;;;1.55;1.00;;;20.50;62.90;;;;;;5023146;28;43492;-57
2022/10/02 05:29:23;;;;;;;1.45;0.90;;;20.50;62.80;;;;;;5015093;28;44530;-57
2022/10/02 05:32:14;;;;;;;1.67;0.85;;;20.50;62.90;;;;;;5023727;28;43757;-57
2022/10/02 05:35:00;;;;;;;;;;;20.50;62.90;;;;;;5012219;28;43538;-58
2022/10/02 05:38:08;;;;;;;2.33;1.00;;;20.50;62.90;;;;;;5022782;28;43515;-60
2022/10/02 05:41:04;;;;;;;1.45;1.23;;;20.50;62.90;;;;;;5018823;28;44052;-59
2022/10/02 05:43:51;;;;;;;1.52;0.98;;;20.50;63.00;;;;;;5017554;28;43931;-58
2022/10/02 05:46:29;;;;;;;1.77;1.00;;;20.50;63.10;;;;;;5022927;28;43467;-58
2022/10/02 05:49:21;;;;;;;1.60;0.90;;;20.50;63.20;;;;;;5006274;28;43488;-57
2022/10/02 05:51:58;;;;;;;1.75;1.10;;;20.50;63.20;;;;;;5017857;28;43419;-57
2022/10/02 05:54:56;;;;;;;1.70;1.00;;;20.50;63.10;;;;;;5020513;28;44671;-58
2022/10/02 05:57:26;;;;;;;1.63;1.17;;;20.50;63.00;;;;;;5021357;28;43854;-57
2022/10/02 06:00:30;;;;;;;1.23;0.80;;;20.50;63.00;;;;;;5023815;28;43400;-57
2022/10/02 06:03:18;;;;;;;2.00;0.93;;;20.50;63.00;;;;;;5006441;28;43466;-57
2022/10/02 06:05:54;;;;;;;2.40;0.90;;;20.50;62.90;;;;;;5021078;28;45209;-57
2022/10/02 06:08:43;;;;;;;2.97;1.20;;;20.50;62.90;;;;;;5022590;28;43366;-57
2022/10/02 06:11:16;;;;;;;2.88;1.15;;;20.50;62.90;;;;;;5027880;28;43452;-57
2022/10/02 06:14:09;;;;;;;1.63;1.05;;;20.50;62.90;;;;;;5023430;28;43480;-57
2022/10/02 06:17:06;;;;;;;2.20;1.02;;;20.50;62.90;;;;;;5020832;28;43752;-57
2022/10/02 06:19:46;;;;;;;1.98;1.00;;;20.50;62.90;;;;;;5019385;28;43788;-57
2022/10/02 06:22:22;;;;;;;2.28;1.10;;;20.50;63.00;;;;;;5020545;28;43391;-58
2022/10/02 06:24:52;;;;;;;4.40;1.90;;;20.50;63.00;;;;;;5020126;28;43527;-58
2022/10/02 06:27:42;;;;;;;2.72;1.85;;;20.50;63.20;;;;;;5021711;28;43860;-58
2022/10/02 06:30:16;;;;;;;2.25;1.90;;;20.50;63.20;;;;;;5023258;28;43483;-58
2022/10/02 06:32:55;;;;;;;2.67;1.73;;;20.50;63.30;;;;;;5022305;28;43391;-58
2022/10/02 06:35:59;;;;;;;1.80;1.67;;;20.50;63.10;;;;;;5022524;28;43406;-60
2022/10/02 06:38:29;;;;;;;3.53;1.67;;;20.60;63.20;;;;;;5019280;28;44633;-58
2022/10/02 06:41:27;;;;;;;2.15;1.75;;;20.70;63.20;;;;;;5022198;28;43806;-57
2022/10/02 06:44:06;;;;;;;3.42;1.63;;;20.80;63.10;;;;;;5013786;28;43466;-58
2022/10/02 06:46:51;;;;;;;5.07;1.88;;;20.80;63.00;;;;;;5021276;28;43404;-58
2022/10/02 06:49:38;;;;;;;2.55;1.80;;;20.90;63.00;;;;;;5053529;28;44132;-57
2022/10/02 06:52:40;;;;;;;2.78;1.60;;;20.90;63.00;;;;;;5018001;28;43504;-57
2022/10/02 06:55:23;;;;;;;3.10;1.90;;;21.00;62.80;;;;;;5020261;28;44469;-57
2022/10/02 06:58:10;;;;;;;2.28;1.75;;;21.10;62.80;;;;;;5019412;28;43483;-57
2022/10/02 07:00:50;;;;;;;2.92;1.80;;;21.10;62.70;;;;;;5017877;28;44781;-57
2022/10/02 07:03:48;;;;;;;3.38;1.67;;;21.20;62.60;;;;;;5019405;28;43535;-57
2022/10/02 07:06:34;;;;;;;3.30;2.00;;;21.30;62.40;;;;;;5020325;28;43405;-58
2022/10/02 07:09:17;;;;;;;3.53;1.77;;;21.40;62.40;;;;;;5017724;28;43568;-57
2022/10/02 07:12:08;;;;;;;2.88;1.80;;;21.40;62.40;;;;;;5018979;28;43710;-57
2022/10/02 07:14:57;;;;;;;1.60;1.50;;;21.50;62.10;;;;;;5019768;28;43546;-57
2022/10/02 07:17:34;;;;;;;4.00;1.55;;;21.60;62.10;;;;;;5019973;28;43485;-57
2022/10/02 07:20:38;;;;;;;4.13;1.67;;;21.60;62.00;;;;;;5019970;28;43521;-57
2022/10/02 07:23:25;;;;;;;3.75;2.03;;;21.70;61.80;;;;;;5004998;28;44800;-57
2022/10/02 07:26:06;;;;;;;3.30;1.70;;;21.80;61.90;;;;;;5020736;28;43483;-57
2022/10/02 07:28:44;;;;;;;3.33;1.52;;;21.90;61.80;;;;;;5019754;28;43965;-57
2022/10/02 07:31:17;;;;;;;3.38;1.75;;;21.90;61.60;;;;;;5019982;28;43493;-58
2022/10/02 07:33:44;;;;;;;3.90;1.67;;;22.00;61.70;;;;;;5051430;28;44970;-58
2022/10/02 07:36:34;;;;;;;3.30;1.27;;;22.10;61.60;;;;;;5020402;28;43454;-57
2022/10/02 07:39:14;;;;;;;2.65;1.60;;;22.10;61.50;;;;;;5020596;28;43569;-57
2022/10/02 07:41:59;;;;;;;5.32;1.70;;;22.10;61.30;;;;;;5048791;28;43515;-57
2022/10/02 07:44:50;;;;;;;3.13;1.50;;;22.20;61.40;;;;;;5009782;28;43927;-57
2022/10/02 07:47:31;;;;;;;3.10;1.60;;;22.20;62.00;;;;;;5020278;28;43474;-57
2022/10/02 07:50:23;;;;;;;1.63;1.40;;;22.20;61.20;;;;;;5021679;28;43451;-58
2022/10/02 07:53:16;;;;;;;2.53;1.67;;;22.20;61.20;;;;;;5015967;28;43363;-57
2022/10/02 07:55:51;;;;;;;2.80;1.40;;;22.20;61.30;;;;;;5019148;28;43907;-57
2022/10/02 07:58:38;;;;;;;1.95;1.40;;;22.20;61.30;;;;;;5018583;28;43461;-58
2022/10/02 08:01:18;;;;;;;4.15;1.60;;;22.20;61.40;;;;;;5015229;28;43966;-57
2022/10/02 08:03:56;;;;;;;3.65;1.40;;;22.20;61.30;;;;;;5043684;28;43523;-58
2022/10/02 08:06:24;;;;;;;2.88;1.30;;;22.20;61.40;;;;;;5021188;28;43714;-57
2022/10/02 08:09:00;;;;;;;3.47;1.25;;;22.20;61.40;;;;;;5018987;28;43420;-57
2022/10/02 08:11:38;;;;;;;2.60;1.25;;;22.20;61.40;;;;;;5026588;28;43378;-58
2022/10/02 08:14:18;;;;;;;3.03;1.25;;;22.20;61.50;;;;;;5022045;28;43436;-57
2022/10/02 08:16:51;;;;;;;2.50;1.30;;;22.20;61.50;;;;;;5019176;28;44313;-57
2022/10/02 08:19:32;;;;;;;2.40;1.40;;;22.20;61.50;;;;;;5019166;28;43512;-57
2022/10/02 08:22:08;;;;;;;3.22;1.60;;;22.20;61.50;;;;;;5012622;28;43416;-57
2022/10/02 08:24:44;;;;;;;5.65;1.48;;;22.20;61.60;;;;;;5016565;28;43494;-57
2022/10/02 08:27:20;;;;;;;3.08;1.70;;;22.20;61.70;;;;;;5019397;28;43947;-58
2022/10/02 08:30:02;;;;;;;4.05;2.05;;;22.20;61.60;;;;;;5019901;28;43444;-57
2022/10/02 08:32:32;;;;;;;3.45;1.73;;;22.20;61.60;;;;;;5019132;28;43461;-58
2022/10/02 08:35:12;;;;;;;2.17;1.63;;;22.20;61.70;;;;;;5052810;28;43529;-57
2022/10/02 08:37:46;;;;;;;2.78;1.73;;;22.20;61.80;;;;;;5016775;28;43760;-57
2022/10/02 08:40:43;;;;;;;4.70;1.83;;;22.20;61.80;;;;;;5019406;28;43721;-58
2022/10/02 08:43:16;;;;;;;5.05;1.90;;;22.20;61.90;;;;;;5051254;28;43403;-57
2022/10/02 08:46:03;;;;;;;3.90;1.75;;;22.30;61.90;;;;;;5001383;28;43962;-56
2022/10/02 08:48:54;;;;;;;3.67;1.77;;;22.30;61.80;;;;;;5019548;28;43806;-57
2022/10/02 08:51:59;;;;;;;4.22;1.70;;;22.30;61.80;;;;;;5023248;28;43371;-57
2022/10/02 08:54:44;;;;;;;4.72;1.50;;;22.40;61.70;;;;;;5022358;28;43459;-57
2022/10/02 08:57:49;;;;;;;4.10;1.88;;;22.40;61.60;;;;;;5021777;28;43482;-57
2022/10/02 09:00:16;;;;;;;4.13;1.80;;;22.40;61.70;;;;;;5022620;28;43905;-57
2022/10/02 09:03:19;;;;;;;5.38;1.60;;;22.40;61.60;;;;;;5024230;28;43447;-57
2022/10/02 09:05:58;;;;;;;4.88;1.60;;;22.40;61.60;;;;;;5014318;28;43585;-57
2022/10/02 09:08:44;;;;;;;2.92;1.80;;;22.50;61.60;;;;;;5014991;28;43590;-57
2022/10/02 09:11:36;;;;;;;2.58;1.75;;;22.50;61.60;;;;;;5022235;28;44624;-57
2022/10/02 09:14:28;;;;;;;2.72;1.48;;;22.50;61.50;;;;;;5021664;28;44021;-57
2022/10/02 09:17:16;;;;;;;3.25;1.60;;;22.60;61.50;;;;;;5016211;28;43467;-57
2022/10/02 09:19:52;;;;;;;2.78;1.83;;;22.60;61.40;;;;;;5024084;28;43472;-57
2022/10/02 09:22:57;;;;;;;2.83;1.42;;;22.60;61.40;;;;;;5023777;28;43772;-57
2022/10/02 09:25:34;;;;;;;3.53;1.73;;;22.70;61.30;;;;;;5011497;28;43442;-57
2022/10/02 09:28:21;;;;;;;3.05;1.48;;;22.70;61.30;;;;;;5021504;28;44153;-57
2022/10/02 09:30:56;;;;;;;2.88;1.50;;;22.70;61.20;;;;;;5001145;28;43612;-57
2022/10/02 09:33:57;;;;;;;1.63;1.52;;;22.70;61.30;;;;;;5024427;28;43816;-57
2022/10/02 09:37:03;;;;;;;3.28;1.42;;;22.70;61.20;;;;;;5019279;28;43734;-57
2022/10/02 09:39:33;;;;;;;4.15;1.50;;;22.70;61.20;;;;;;5023037;28;43453;-57
2022/10/02 09:42:22;;;;;;;2.55;1.23;;;22.70;61.20;;;;;;5023697;28;43495;-57
2022/10/02 09:45:17;;;;;;;2.08;1.35;;;22.70;61.20;;;;;;5023433;28;44862;-58
2022/10/02 09:48:10;;;;;;;2.13;1.45;;;22.70;61.20;;;;;;5021175;28;43397;-57
2022/10/02 09:50:46;;;;;;;2.95;1.27;;;22.70;61.30;;;;;;5022906;28;43405;-58
2022/10/02 09:53:37;;;;;;;3.38;1.38;;;22.70;61.30;;;;;;5023049;28;43424;-57
2022/10/02 09:56:33;;;;;;;1.98;1.20;;;22.70;61.30;;;;;;5019803;28;44804;-57
2022/10/02 09:59:01;;;;;;;2.83;1.58;;;22.70;61.30;;;;;;5023892;28;43694;-57
2022/10/02 10:01:35;;;;;;;3.65;1.50;;;22.70;61.30;;;;;;5054673;28;43468;-58
2022/10/02 10:04:30;;;;;;;3.40;1.70;;;22.70;61.30;;;;;;5016038;28;43578;-57
2022/10/02 10:07:18;;;;;;;3.33;1.83;;;22.70;61.30;;;;;;5020793;28;44200;-57
2022/10/02 10:10:04;;;;;;;3.78;1.85;;;22.70;61.30;;;;;;5023156;28;43368;-57
2022/10/02 10:12:56;;;;;;;3.13;1.27;;;22.70;61.20;;;;;;5017530;28;43413;-58
2022/10/02 10:15:39;;;;;;;3.03;1.60;;;22.70;61.30;;;;;;5018140;28;43463;-57
2022/10/02 10:18:46;;;;;;;2.63;1.70;;;22.60;61.20;;;;;;5021165;28;43773;-57
2022/10/02 10:21:51;;;;;;;3.28;1.88;;;22.60;61.30;;;;;;5012444;28;43584;-57
2022/10/02 10:24:51;;;;;;;2.80;1.60;;;22.60;61.30;;;;;;5022503;28;43448;-58
2022/10/02 10:27:47;;;;;;;3.17;1.60;;;22.60;61.40;;;;;;5022292;28;43518;-57
2022/10/02 10:30:36;;;;;;;3.20;1.58;;;22.60;61.40;;;;;;5017579;28;44976;-58
2022/10/02 10:33:26;;;;;;;3.17;1.45;;;22.60;61.50;;;;;;5021866;28;43462;-57
2022/10/02 10:39:37;;;;;;;2.28;1.30;;;22.60;61.50;;;;;;5026868;28;43503;-58
2022/10/02 10:42:37;;;;;;;2.88;1.30;;;22.60;61.60;;;;;;5021618;28;44013;-57
2022/10/02 10:45:46;;;;;;;3.92;1.77;;;22.60;61.60;;;;;;5013690;28;43490;-57
2022/10/02 10:48:32;;;;;;;2.83;1.50;;;22.60;61.60;;;;;;5022881;28;43461;-57
2022/10/02 10:51:13;;;;;;;3.53;1.20;;;22.60;61.60;;;;;;5022827;28;43486;-57
2022/10/02 10:54:07;;;;;;;2.35;1.23;;;22.60;61.50;;;;;;5014568;28;43910;-57
2022/10/02 10:56:54;;;;;;;3.25;1.33;;;22.60;61.50;;;;;;5045373;28;43784;-57
2022/10/02 10:59:41;;;;;;;2.58;1.20;;;22.60;61.60;;;;;;5013019;28;43444;-57
2022/10/02 11:02:13;;;;;;;3.70;1.70;;;22.60;61.50;;;;;;5022722;28;43444;-57
2022/10/02 11:05:14;;;;;;;2.75;1.63;;;22.60;61.50;;;;;;5021623;28;43807;-58
2022/10/02 11:08:05;;;;;;;2.20;1.50;;;22.70;61.50;;;;;;5016270;28;43677;-57
2022/10/02 11:10:32;;;;;;;;;;;22.60;61.50;;;;;;5024281;28;43522;-57
2022/10/02 11:13:45;;;;;;;1.75;1.33;;;22.60;61.50;;;;;;5022455;28;43474;-57
2022/10/02 11:16:22;;;;;;;3.22;1.73;;;22.60;61.50;;;;;;5018829;28;44694;-57
2022/10/02 11:19:25;;;;;;;3.80;1.63;;;22.60;61.50;;;;;;5019181;28;43375;-57
2022/10/02 11:22:26;;;;;;;3.03;1.45;;;22.60;61.50;;;;;;5018153;28;43988;-57
2022/10/02 11:25:12;;;;;;;3.35;1.38;;;22.60;61.40;;;;;;5022038;28;43424;-57
2022/10/02 11:27:49;;;;;;;2.17;1.10;;;22.60;61.40;;;;;;5018109;28;43571;-57
2022/10/02 11:30:37;;;;;;;2.88;1.55;;;22.60;61.40;;;;;;5019135;28;43424;-57
2022/10/02 11:34:02;;;;;;;3.97;1.50;;;22.70;61.40;;;;;;5014836;28;43463;-57
2022/10/02 11:36:51;;;;;;;2.50;1.27;;;22.70;61.40;;;;;;4997443;28;43493;-57
2022/10/02 11:39:53;;;;;;;3.05;1.48;;;22.70;61.40;;;;;;5021631;28;44687;-57
2022/10/02 11:42:26;;;;;;;3.20;1.38;;;22.70;61.30;;;;;;5018353;28;43360;-57
2022/10/02 11:45:03;;;;;;;3.15;1.27;;;22.70;61.40;;;;;;5021752;28;43421;-57
2022/10/02 11:48:12;;;;;;;4.03;1.60;;;22.70;61.30;;;;;;5020091;28;43478;-57
2022/10/02 11:50:45;;;;;;;2.90;1.35;;;22.80;61.40;;;;;;4999503;28;44967;-57
2022/10/02 11:53:30;;;;;;;3.33;1.60;;;22.80;61.30;;;;;;5019100;28;43303;-58
2022/10/02 11:56:35;;;;;;;2.00;1.20;;;22.80;61.30;;;;;;5015556;28;43427;-57
2022/10/02 11:59:32;;;;;;;3.92;1.50;;;22.80;61.30;;;;;;4991152;28;43482;-57
2022/10/02 12:02:10;;;;;;;2.60;1.48;;;22.80;61.30;;;;;;5019478;28;44692;-58
2022/10/02 12:04:59;;;;;;;2.38;1.48;;;22.80;61.30;;;;;;5047188;28;43447;-58
2022/10/02 12:07:52;;;;;;;2.65;1.58;;;22.80;61.30;;;;;;5016918;28;43531;-58
2022/10/02 12:10:22;;;;;;;3.78;1.40;;;22.80;61.30;;;;;;5023070;28;43520;-58
2022/10/02 12:13:15;;;;;;;2.30;1.40;;;22.80;61.40;;;;;;5023613;28;43819;-57
2022/10/02 12:16:09;;;;;;;3.25;1.30;;;22.80;61.30;;;;;;5042457;28;43491;-57
2022/10/02 12:19:11;;;;;;;3.67;1.30;;;22.80;61.40;;;;;;5012809;28;43570;-57
2022/10/02 12:28:41;;;;;;;3.28;1.25;;;22.80;61.40;;;;;;5020395;28;43475;-57
2022/10/02 12:32:07;;;;;;;3.13;1.27;;;22.80;61.40;;;;;;5022219;28;43493;-58
2022/10/02 12:35:00;;;;;;;5.30;1.63;;;22.90;61.50;;;;;;5029438;28;43540;-57
2022/10/02 12:37:34;;;;;;;1.60;1.35;;;22.90;61.40;;;;;;5022157;28;44684;-58
2022/10/02 12:40:14;;;;;;;2.90;1.52;;;22.90;61.40;;;;;;5023131;28;43969;-58
2022/10/02 12:42:53;;;;;;;4.45;1.52;;;22.90;61.40;;;;;;5022477;28;43501;-57
2022/10/02 12:45:27;;;;;;;3.40;1.40;;;22.90;61.40;;;;;;5020680;28;43463;-58
2022/10/02 12:48:03;;;;;;;3.72;1.67;;;22.90;61.40;;;;;;5022068;28;44035;-57
2022/10/02 12:50:40;;;;;;;3.53;1.48;;;22.90;61.40;;;;;;5023165;28;43834;-57
2022/10/02 12:53:28;;;;;;;2.63;1.33;;;22.90;61.40;;;;;;5022988;28;43427;-57
2022/10/02 12:56:17;;;;;;;5.97;2.08;;;23.00;61.40;;;;;;5021886;28;43522;-57
2022/10/02 12:58:52;;;;;;;2.13;1.35;;;23.00;61.40;;;;;;5022409;28;43771;-57
2022/10/02 13:01:44;;;;;;;2.42;1.60;;;23.00;61.40;;;;;;5023898;28;43691;-57
2022/10/02 13:04:39;;;;;;;4.03;1.63;;;23.00;61.30;;;;;;5021310;28;43473;-58
2022/10/02 13:07:58;;;;;;;4.05;1.70;;;23.00;61.20;;;;;;5021739;28;43514;-57
2022/10/02 13:10:36;;;;;;;2.97;1.30;;;23.00;61.30;;;;;;5006886;28;43778;-58
2022/10/02 13:13:36;;;;;;;3.95;1.52;;;23.00;61.40;;;;;;5022919;28;43498;-57
2022/10/02 13:16:12;;;;;;;4.25;1.40;;;23.00;61.30;;;;;;5023856;28;43546;-57
2022/10/02 13:19:02;;;;;;;3.03;1.50;;;23.00;61.20;;;;;;5003926;28;43662;-57
2022/10/02 13:22:02;;;;;;;3.63;1.40;;;23.00;61.30;;;;;;5021205;28;44182;-57
2022/10/02 13:24:51;;;;;;;2.95;1.45;;;23.10;61.20;;;;;;5018875;28;43519;-57
2022/10/02 13:27:31;;;;;;;4.10;1.38;;;23.10;61.20;;;;;;5020897;28;43525;-57
2022/10/02 13:30:15;;;;;;;3.85;1.42;;;23.00;61.10;;;;;;5021325;28;43417;-57
2022/10/02 13:33:10;;;;;;;3.20;1.38;;;23.00;61.20;;;;;;5021889;28;44002;-57
2022/10/02 13:35:56;;;;;;;4.70;1.60;;;23.00;61.20;;;;;;5021525;28;44051;-58
2022/10/02 13:38:45;;;;;;;3.58;1.48;;;23.00;61.30;;;;;;5020812;28;43513;-57
2022/10/02 13:41:27;;;;;;;6.00;1.70;;;23.00;61.20;;;;;;5038383;28;43623;-57
2022/10/02 13:44:21;;;;;;;3.65;1.58;;;23.00;61.30;;;;;;5021611;28;43986;-57
2022/10/02 13:47:01;;;;;;;3.63;1.65;;;23.00;61.20;;;;;;5002241;28;43534;-57
2022/10/02 13:50:09;;;;;;;3.78;1.80;;;23.00;61.20;;;;;;5021428;28;43344;-57
2022/10/02 13:52:43;;;;;;;3.10;1.40;;;23.00;61.20;;;;;;5021667;28;43543;-57
2022/10/02 13:55:40;;;;;;;3.13;1.38;;;23.00;61.20;;;;;;5021613;28;44692;-57
2022/10/02 13:58:25;;;;;;;4.63;1.48;;;23.00;61.20;;;;;;5022573;28;43664;-57
2022/10/02 14:01:14;;;;;;;2.65;1.20;;;23.00;61.20;;;;;;5021107;28;43518;-57
2022/10/02 14:04:02;;;;;;;3.08;1.40;;;23.00;61.20;;;;;;5022006;28;43384;-57
2022/10/02 14:06:29;;;;;;;3.05;1.40;;;23.00;61.30;;;;;;5018528;28;44339;-57
2022/10/02 14:09:17;;;;;;;2.83;1.55;;;23.00;61.30;;;;;;5022506;28;43412;-58
2022/10/02 14:12:07;;;;;;;3.53;1.55;;;23.00;61.30;;;;;;5023013;28;43432;-57
2022/10/02 14:14:38;;;;;;;3.78;1.50;;;23.00;61.30;;;;;;5018421;28;43458;-58
2022/10/02 14:17:11;;;;;;;3.45;1.50;;;22.90;61.30;;;;;;5054284;28;44650;-57
2022/10/02 14:20:04;;;;;;;3.55;1.45;;;22.90;61.30;;;;;;5022029;28;43460;-58
2022/10/02 14:23:04;;;;;;;5.28;3.40;;;23.00;61.70;;;;;;5018439;28;43457;-57
2022/10/02 14:25:55;;;;;;;4.03;2.80;;;22.90;61.60;;;;;;5021100;28;43446;-57
2022/10/02 14:28:47;;;;;;;3.95;2.35;;;22.90;61.40;;;;;;5048125;28;43952;-57